sensor_id;sensor_type;location;lat;lon;timestamp;temperature;humidity
20070;DHT22;10195;50.868;4.382;2022-07-10T00:00:18;16.10;99.90
20070;DHT22;10195;50.868;4.382;2022-07-10T00:02:46;16.10;99.90
20070;DHT22;10195;50.868;4.382;2022-07-10T00:05:12;16.10;99.90
20070;DHT22;10195;50.868;4.382;2022-07-10T00:07:44;16.10;99.90
20070;DHT22;10195;50.868;4.382;2022-07-10T00:10:10;16.10;99.90
20070;DHT22;10195;50.868;4.382;2022-07-10T00:12:36;16.20;99.90
20070;DHT22;10195;50.868;4.382;2022-07-10T00:15:06;16.20;99.90
20070;DHT22;10195;50.868;4.382;2022-07-10T00:17:35;16.20;99.90
20070;DHT22;10195;50.868;4.382;2022-07-10T00:20:02;16.20;99.90
20070;DHT22;10195;50.868;4.382;2022-07-10T00:22:28;16.20;99.90
20070;DHT22;10195;50.868;4.382;2022-07-10T00:25:00;16.20;99.90
20070;DHT22;10195;50.868;4.382;2022-07-10T00:27:29;16.20;99.90
20070;DHT22;10195;50.868;4.382;2022-07-10T00:29:58;16.20;99.90
20070;DHT22;10195;50.868;4.382;2022-07-10T00:32:24;16.20;99.90
20070;DHT22;10195;50.868;4.382;2022-07-10T00:34:51;16.20;99.90
20070;DHT22;10195;50.868;4.382;2022-07-10T00:37:17;16.10;99.90
20070;DHT22;10195;50.868;4.382;2022-07-10T00:39:43;16.10;99.90
20070;DHT22;10195;50.868;4.382;2022-07-10T00:42:12;16.00;99.90
20070;DHT22;10195;50.868;4.382;2022-07-10T00:44:41;16.10;99.90
20070;DHT22;10195;50.868;4.382;2022-07-10T00:47:08;16.10;99.90
20070;DHT22;10195;50.868;4.382;2022-07-10T00:49:35;16.00;99.90
20070;DHT22;10195;50.868;4.382;2022-07-10T00:52:04;16.00;99.90
20070;DHT22;10195;50.868;4.382;2022-07-10T00:54:32;16.00;99.90
20070;DHT22;10195;50.868;4.382;2022-07-10T00:56:58;16.00;99.90
20070;DHT22;10195;50.868;4.382;2022-07-10T00:59:25;15.90;99.90
20070;DHT22;10195;50.868;4.382;2022-07-10T01:01:51;15.90;99.90
20070;DHT22;10195;50.868;4.382;2022-07-10T01:04:17;15.80;99.90
20070;DHT22;10195;50.868;4.382;2022-07-10T01:06:43;15.80;99.90
20070;DHT22;10195;50.868;4.382;2022-07-10T01:09:09;15.80;99.90
20070;DHT22;10195;50.868;4.382;2022-07-10T01:11:36;15.90;99.90
20070;DHT22;10195;50.868;4.382;2022-07-10T01:14:03;16.00;99.90
20070;DHT22;10195;50.868;4.382;2022-07-10T01:16:29;15.90;99.90
20070;DHT22;10195;50.868;4.382;2022-07-10T01:18:55;15.80;99.90
20070;DHT22;10195;50.868;4.382;2022-07-10T01:21:28;15.80;99.90
20070;DHT22;10195;50.868;4.382;2022-07-10T01:23:55;15.80;99.90
20070;DHT22;10195;50.868;4.382;2022-07-10T01:26:21;15.80;99.90
20070;DHT22;10195;50.868;4.382;2022-07-10T01:28:50;15.80;99.90
20070;DHT22;10195;50.868;4.382;2022-07-10T01:31:18;15.60;99.90
20070;DHT22;10195;50.868;4.382;2022-07-10T01:33:44;15.60;99.90
20070;DHT22;10195;50.868;4.382;2022-07-10T01:36:10;15.50;99.90
20070;DHT22;10195;50.868;4.382;2022-07-10T01:38:36;15.40;99.90
20070;DHT22;10195;50.868;4.382;2022-07-10T01:41:02;15.40;99.90
20070;DHT22;10195;50.868;4.382;2022-07-10T01:43:27;15.40;99.90
20070;DHT22;10195;50.868;4.382;2022-07-10T01:45:53;15.50;99.90
20070;DHT22;10195;50.868;4.382;2022-07-10T01:48:18;15.60;99.90
20070;DHT22;10195;50.868;4.382;2022-07-10T01:50:44;15.60;99.90
20070;DHT22;10195;50.868;4.382;2022-07-10T01:53:10;15.50;99.90
20070;DHT22;10195;50.868;4.382;2022-07-10T01:55:36;15.50;99.90
20070;DHT22;10195;50.868;4.382;2022-07-10T01:58:02;15.50;99.90
20070;DHT22;10195;50.868;4.382;2022-07-10T02:00:28;15.40;99.90
20070;DHT22;10195;50.868;4.382;2022-07-10T02:02:54;15.40;99.90
20070;DHT22;10195;50.868;4.382;2022-07-10T02:05:38;15.40;99.90
20070;DHT22;10195;50.868;4.382;2022-07-10T02:08:04;15.40;99.90
20070;DHT22;10195;50.868;4.382;2022-07-10T02:10:31;15.40;99.90
20070;DHT22;10195;50.868;4.382;2022-07-10T02:12:57;15.40;99.90
20070;DHT22;10195;50.868;4.382;2022-07-10T02:15:23;15.40;99.90
20070;DHT22;10195;50.868;4.382;2022-07-10T02:17:49;15.40;99.90
20070;DHT22;10195;50.868;4.382;2022-07-10T02:20:14;15.40;99.90
20070;DHT22;10195;50.868;4.382;2022-07-10T02:22:41;15.50;99.90
20070;DHT22;10195;50.868;4.382;2022-07-10T02:25:07;15.50;99.90
20070;DHT22;10195;50.868;4.382;2022-07-10T02:27:32;15.60;99.90
20070;DHT22;10195;50.868;4.382;2022-07-10T02:29:58;15.60;99.90
20070;DHT22;10195;50.868;4.382;2022-07-10T02:32:24;15.50;99.90
20070;DHT22;10195;50.868;4.382;2022-07-10T02:34:49;15.60;99.90
20070;DHT22;10195;50.868;4.382;2022-07-10T02:37:15;15.60;99.90
20070;DHT22;10195;50.868;4.382;2022-07-10T02:39:41;15.50;99.90
20070;DHT22;10195;50.868;4.382;2022-07-10T02:42:06;15.50;99.90
20070;DHT22;10195;50.868;4.382;2022-07-10T02:44:32;15.50;99.90
20070;DHT22;10195;50.868;4.382;2022-07-10T02:46:58;15.40;99.90
20070;DHT22;10195;50.868;4.382;2022-07-10T02:49:23;15.40;99.90
20070;DHT22;10195;50.868;4.382;2022-07-10T02:51:49;15.30;99.90
20070;DHT22;10195;50.868;4.382;2022-07-10T02:54:16;15.20;99.90
20070;DHT22;10195;50.868;4.382;2022-07-10T02:56:42;15.00;99.90
20070;DHT22;10195;50.868;4.382;2022-07-10T02:59:07;14.90;99.90
20070;DHT22;10195;50.868;4.382;2022-07-10T03:01:33;15.00;99.90
20070;DHT22;10195;50.868;4.382;2022-07-10T03:03:59;15.10;99.90
20070;DHT22;10195;50.868;4.382;2022-07-10T03:06:26;15.20;99.90
20070;DHT22;10195;50.868;4.382;2022-07-10T03:08:52;15.20;99.90
20070;DHT22;10195;50.868;4.382;2022-07-10T03:11:18;15.30;99.90
20070;DHT22;10195;50.868;4.382;2022-07-10T03:13:43;15.30;99.90
20070;DHT22;10195;50.868;4.382;2022-07-10T03:16:09;15.30;99.90
20070;DHT22;10195;50.868;4.382;2022-07-10T03:18:35;15.20;99.90
20070;DHT22;10195;50.868;4.382;2022-07-10T03:21:00;15.20;99.90
20070;DHT22;10195;50.868;4.382;2022-07-10T03:23:26;15.20;99.90
20070;DHT22;10195;50.868;4.382;2022-07-10T03:25:51;15.20;99.90
20070;DHT22;10195;50.868;4.382;2022-07-10T03:28:17;15.10;99.90
20070;DHT22;10195;50.868;4.382;2022-07-10T03:30:42;15.10;99.90
20070;DHT22;10195;50.868;4.382;2022-07-10T03:33:08;15.10;99.90
20070;DHT22;10195;50.868;4.382;2022-07-10T03:35:34;15.10;99.90
20070;DHT22;10195;50.868;4.382;2022-07-10T03:37:59;15.20;99.90
20070;DHT22;10195;50.868;4.382;2022-07-10T03:40:25;15.20;99.90
20070;DHT22;10195;50.868;4.382;2022-07-10T03:42:52;15.20;99.90
20070;DHT22;10195;50.868;4.382;2022-07-10T03:45:17;15.10;99.90
20070;DHT22;10195;50.868;4.382;2022-07-10T03:47:43;15.00;99.90
20070;DHT22;10195;50.868;4.382;2022-07-10T03:50:09;15.00;99.90
20070;DHT22;10195;50.868;4.382;2022-07-10T03:52:35;15.20;99.90
20070;DHT22;10195;50.868;4.382;2022-07-10T03:55:01;15.10;99.90
20070;DHT22;10195;50.868;4.382;2022-07-10T03:57:26;15.10;99.90
20070;DHT22;10195;50.868;4.382;2022-07-10T04:00:11;15.20;99.90
20070;DHT22;10195;50.868;4.382;2022-07-10T04:02:37;15.20;99.90
20070;DHT22;10195;50.868;4.382;2022-07-10T04:05:05;15.20;99.90
20070;DHT22;10195;50.868;4.382;2022-07-10T04:07:31;15.20;99.90
20070;DHT22;10195;50.868;4.382;2022-07-10T04:09:57;15.30;99.90
20070;DHT22;10195;50.868;4.382;2022-07-10T04:12:23;15.30;99.90
20070;DHT22;10195;50.868;4.382;2022-07-10T04:14:48;15.20;99.90
20070;DHT22;10195;50.868;4.382;2022-07-10T04:17:19;15.20;99.90
20070;DHT22;10195;50.868;4.382;2022-07-10T04:19:45;15.30;99.90
20070;DHT22;10195;50.868;4.382;2022-07-10T04:22:11;15.40;99.90
20070;DHT22;10195;50.868;4.382;2022-07-10T04:24:37;15.40;99.90
20070;DHT22;10195;50.868;4.382;2022-07-10T04:27:03;15.50;99.90
20070;DHT22;10195;50.868;4.382;2022-07-10T04:29:28;15.50;99.90
20070;DHT22;10195;50.868;4.382;2022-07-10T04:31:54;15.50;99.90
20070;DHT22;10195;50.868;4.382;2022-07-10T04:34:20;15.50;99.90
20070;DHT22;10195;50.868;4.382;2022-07-10T04:36:45;15.60;99.90
20070;DHT22;10195;50.868;4.382;2022-07-10T04:39:11;15.60;99.90
20070;DHT22;10195;50.868;4.382;2022-07-10T04:41:36;15.70;99.90
20070;DHT22;10195;50.868;4.382;2022-07-10T04:44:02;15.60;99.90
20070;DHT22;10195;50.868;4.382;2022-07-10T04:46:28;15.80;99.90
20070;DHT22;10195;50.868;4.382;2022-07-10T04:48:53;15.90;99.90
20070;DHT22;10195;50.868;4.382;2022-07-10T04:51:19;15.80;99.90
20070;DHT22;10195;50.868;4.382;2022-07-10T04:53:45;15.80;99.90
20070;DHT22;10195;50.868;4.382;2022-07-10T04:56:11;15.80;99.90
20070;DHT22;10195;50.868;4.382;2022-07-10T04:58:36;15.80;99.90
20070;DHT22;10195;50.868;4.382;2022-07-10T05:01:02;15.70;99.90
20070;DHT22;10195;50.868;4.382;2022-07-10T05:03:28;15.80;99.90
20070;DHT22;10195;50.868;4.382;2022-07-10T05:05:54;15.70;99.90
20070;DHT22;10195;50.868;4.382;2022-07-10T05:08:23;15.70;99.90
20070;DHT22;10195;50.868;4.382;2022-07-10T05:10:49;15.90;99.90
20070;DHT22;10195;50.868;4.382;2022-07-10T05:13:14;16.00;99.90
20070;DHT22;10195;50.868;4.382;2022-07-10T05:15:40;16.00;99.90
20070;DHT22;10195;50.868;4.382;2022-07-10T05:18:05;15.90;99.90
20070;DHT22;10195;50.868;4.382;2022-07-10T05:20:31;15.80;99.90
20070;DHT22;10195;50.868;4.382;2022-07-10T05:22:57;15.90;99.90
20070;DHT22;10195;50.868;4.382;2022-07-10T05:25:23;15.90;99.90
20070;DHT22;10195;50.868;4.382;2022-07-10T05:27:51;15.70;99.90
20070;DHT22;10195;50.868;4.382;2022-07-10T05:30:17;15.60;99.90
20070;DHT22;10195;50.868;4.382;2022-07-10T05:32:46;15.70;99.90
20070;DHT22;10195;50.868;4.382;2022-07-10T05:35:14;15.70;99.90
20070;DHT22;10195;50.868;4.382;2022-07-10T05:37:41;15.80;99.90
20070;DHT22;10195;50.868;4.382;2022-07-10T05:40:07;16.20;99.90
20070;DHT22;10195;50.868;4.382;2022-07-10T05:42:34;16.90;99.90
20070;DHT22;10195;50.868;4.382;2022-07-10T05:44:59;17.60;99.90
20070;DHT22;10195;50.868;4.382;2022-07-10T05:47:25;18.00;99.90
20070;DHT22;10195;50.868;4.382;2022-07-10T05:49:51;18.30;99.90
20070;DHT22;10195;50.868;4.382;2022-07-10T05:52:16;19.10;99.90
20070;DHT22;10195;50.868;4.382;2022-07-10T05:54:42;18.50;99.90
20070;DHT22;10195;50.868;4.382;2022-07-10T05:57:07;18.20;99.90
20070;DHT22;10195;50.868;4.382;2022-07-10T05:59:34;17.90;99.90
20070;DHT22;10195;50.868;4.382;2022-07-10T06:02:03;17.50;99.90
20070;DHT22;10195;50.868;4.382;2022-07-10T06:04:29;17.20;99.90
20070;DHT22;10195;50.868;4.382;2022-07-10T06:06:54;17.00;99.90
20070;DHT22;10195;50.868;4.382;2022-07-10T06:09:20;16.80;99.90
20070;DHT22;10195;50.868;4.382;2022-07-10T06:11:45;16.80;99.90
20070;DHT22;10195;50.868;4.382;2022-07-10T06:14:13;16.80;99.90
20070;DHT22;10195;50.868;4.382;2022-07-10T06:16:39;16.90;99.90
20070;DHT22;10195;50.868;4.382;2022-07-10T06:19:05;16.90;99.90
20070;DHT22;10195;50.868;4.382;2022-07-10T06:21:31;17.10;99.90
20070;DHT22;10195;50.868;4.382;2022-07-10T06:23:57;17.20;99.90
20070;DHT22;10195;50.868;4.382;2022-07-10T06:26:22;17.60;99.90
20070;DHT22;10195;50.868;4.382;2022-07-10T06:28:48;17.90;99.90
20070;DHT22;10195;50.868;4.382;2022-07-10T06:31:14;18.10;99.90
20070;DHT22;10195;50.868;4.382;2022-07-10T06:33:39;18.40;99.90
20070;DHT22;10195;50.868;4.382;2022-07-10T06:36:05;18.00;99.90
20070;DHT22;10195;50.868;4.382;2022-07-10T06:38:31;17.80;99.90
20070;DHT22;10195;50.868;4.382;2022-07-10T06:40:57;17.60;99.90
20070;DHT22;10195;50.868;4.382;2022-07-10T06:43:23;17.30;99.90
20070;DHT22;10195;50.868;4.382;2022-07-10T06:45:48;17.30;99.90
20070;DHT22;10195;50.868;4.382;2022-07-10T06:48:14;17.70;99.90
20070;DHT22;10195;50.868;4.382;2022-07-10T06:50:41;18.00;99.90
20070;DHT22;10195;50.868;4.382;2022-07-10T06:53:06;18.30;99.90
20070;DHT22;10195;50.868;4.382;2022-07-10T06:55:33;18.50;99.90
20070;DHT22;10195;50.868;4.382;2022-07-10T06:57:59;18.10;99.90
20070;DHT22;10195;50.868;4.382;2022-07-10T07:00:25;17.60;99.90
20070;DHT22;10195;50.868;4.382;2022-07-10T07:02:51;17.60;99.90
20070;DHT22;10195;50.868;4.382;2022-07-10T07:05:17;17.60;99.90
20070;DHT22;10195;50.868;4.382;2022-07-10T07:07:43;17.50;99.90
20070;DHT22;10195;50.868;4.382;2022-07-10T07:10:09;17.70;99.90
20070;DHT22;10195;50.868;4.382;2022-07-10T07:12:35;17.80;99.90
20070;DHT22;10195;50.868;4.382;2022-07-10T07:15:01;17.70;99.90
20070;DHT22;10195;50.868;4.382;2022-07-10T07:17:26;17.70;99.90
20070;DHT22;10195;50.868;4.382;2022-07-10T07:20:00;17.60;99.90
20070;DHT22;10195;50.868;4.382;2022-07-10T07:22:44;17.70;99.90
20070;DHT22;10195;50.868;4.382;2022-07-10T07:25:29;17.90;99.90
20070;DHT22;10195;50.868;4.382;2022-07-10T07:27:55;17.90;99.90
20070;DHT22;10195;50.868;4.382;2022-07-10T07:30:20;17.80;99.90
20070;DHT22;10195;50.868;4.382;2022-07-10T07:32:46;17.90;99.90
20070;DHT22;10195;50.868;4.382;2022-07-10T07:35:16;18.30;99.90
20070;DHT22;10195;50.868;4.382;2022-07-10T07:37:44;18.80;99.90
20070;DHT22;10195;50.868;4.382;2022-07-10T07:40:12;19.30;99.90
20070;DHT22;10195;50.868;4.382;2022-07-10T07:42:38;20.10;99.90
20070;DHT22;10195;50.868;4.382;2022-07-10T07:45:04;20.20;99.90
20070;DHT22;10195;50.868;4.382;2022-07-10T07:47:31;19.70;99.90
20070;DHT22;10195;50.868;4.382;2022-07-10T07:50:07;19.20;99.90
20070;DHT22;10195;50.868;4.382;2022-07-10T07:52:33;18.70;99.90
20070;DHT22;10195;50.868;4.382;2022-07-10T07:55:01;18.40;99.90
20070;DHT22;10195;50.868;4.382;2022-07-10T07:57:26;18.90;99.90
20070;DHT22;10195;50.868;4.382;2022-07-10T07:59:52;19.10;99.90
20070;DHT22;10195;50.868;4.382;2022-07-10T08:02:17;19.30;99.90
20070;DHT22;10195;50.868;4.382;2022-07-10T08:04:43;19.00;99.90
20070;DHT22;10195;50.868;4.382;2022-07-10T08:07:09;19.00;99.90
20070;DHT22;10195;50.868;4.382;2022-07-10T08:09:34;18.80;99.90
20070;DHT22;10195;50.868;4.382;2022-07-10T08:12:00;18.80;99.90
20070;DHT22;10195;50.868;4.382;2022-07-10T08:14:26;19.40;99.90
20070;DHT22;10195;50.868;4.382;2022-07-10T08:16:51;20.10;99.90
20070;DHT22;10195;50.868;4.382;2022-07-10T08:19:17;20.00;99.90
20070;DHT22;10195;50.868;4.382;2022-07-10T08:21:43;20.60;99.90
20070;DHT22;10195;50.868;4.382;2022-07-10T08:24:09;21.10;99.90
20070;DHT22;10195;50.868;4.382;2022-07-10T08:26:34;21.70;99.90
20070;DHT22;10195;50.868;4.382;2022-07-10T08:29:00;22.70;99.90
20070;DHT22;10195;50.868;4.382;2022-07-10T08:31:26;23.10;99.90
20070;DHT22;10195;50.868;4.382;2022-07-10T08:33:51;22.90;99.90
20070;DHT22;10195;50.868;4.382;2022-07-10T08:36:18;22.70;99.90
20070;DHT22;10195;50.868;4.382;2022-07-10T08:38:43;22.90;99.90
20070;DHT22;10195;50.868;4.382;2022-07-10T08:41:10;22.40;99.90
20070;DHT22;10195;50.868;4.382;2022-07-10T08:43:36;23.00;99.90
20070;DHT22;10195;50.868;4.382;2022-07-10T08:46:02;21.90;99.90
20070;DHT22;10195;50.868;4.382;2022-07-10T08:48:32;21.70;99.90
20070;DHT22;10195;50.868;4.382;2022-07-10T08:51:03;22.10;99.90
20070;DHT22;10195;50.868;4.382;2022-07-10T08:53:31;23.00;99.90
20070;DHT22;10195;50.868;4.382;2022-07-10T08:55:58;22.80;99.90
20070;DHT22;10195;50.868;4.382;2022-07-10T08:58:26;23.00;99.90
20070;DHT22;10195;50.868;4.382;2022-07-10T09:00:52;23.10;99.90
20070;DHT22;10195;50.868;4.382;2022-07-10T09:03:19;22.40;99.90
20070;DHT22;10195;50.868;4.382;2022-07-10T09:05:44;21.60;99.90
20070;DHT22;10195;50.868;4.382;2022-07-10T09:08:27;22.30;99.90
20070;DHT22;10195;50.868;4.382;2022-07-10T09:11:18;23.20;99.90
20070;DHT22;10195;50.868;4.382;2022-07-10T09:16:30;23.20;99.90
20070;DHT22;10195;50.868;4.382;2022-07-10T09:18:56;23.50;99.90
20070;DHT22;10195;50.868;4.382;2022-07-10T09:21:23;24.10;99.90
20070;DHT22;10195;50.868;4.382;2022-07-10T09:23:49;24.60;99.90
20070;DHT22;10195;50.868;4.382;2022-07-10T09:26:15;24.30;99.90
20070;DHT22;10195;50.868;4.382;2022-07-10T09:28:41;24.20;99.90
20070;DHT22;10195;50.868;4.382;2022-07-10T09:31:07;24.00;99.90
20070;DHT22;10195;50.868;4.382;2022-07-10T09:33:33;23.30;99.90
20070;DHT22;10195;50.868;4.382;2022-07-10T09:36:08;22.30;99.90
20070;DHT22;10195;50.868;4.382;2022-07-10T09:43:49;23.20;99.90
20070;DHT22;10195;50.868;4.382;2022-07-10T09:46:16;23.60;99.90
20070;DHT22;10195;50.868;4.382;2022-07-10T09:48:42;23.80;99.90
20070;DHT22;10195;50.868;4.382;2022-07-10T09:51:09;23.90;99.90
20070;DHT22;10195;50.868;4.382;2022-07-10T09:53:40;23.80;99.90
20070;DHT22;10195;50.868;4.382;2022-07-10T09:56:15;22.60;99.90
20070;DHT22;10195;50.868;4.382;2022-07-10T09:58:43;22.60;99.90
20070;DHT22;10195;50.868;4.382;2022-07-10T10:01:11;23.30;99.90
20070;DHT22;10195;50.868;4.382;2022-07-10T10:03:38;24.20;99.90
20070;DHT22;10195;50.868;4.382;2022-07-10T10:06:16;24.30;99.90
20070;DHT22;10195;50.868;4.382;2022-07-10T10:08:54;24.00;99.90
20070;DHT22;10195;50.868;4.382;2022-07-10T10:11:25;23.50;99.90
20070;DHT22;10195;50.868;4.382;2022-07-10T10:13:51;23.60;99.90
20070;DHT22;10195;50.868;4.382;2022-07-10T10:16:19;23.70;99.90
20070;DHT22;10195;50.868;4.382;2022-07-10T10:18:46;23.30;99.90
20070;DHT22;10195;50.868;4.382;2022-07-10T10:21:30;22.50;99.90
20070;DHT22;10195;50.868;4.382;2022-07-10T10:23:56;22.10;99.90
20070;DHT22;10195;50.868;4.382;2022-07-10T10:26:23;22.10;99.90
20070;DHT22;10195;50.868;4.382;2022-07-10T10:28:52;22.10;99.90
20070;DHT22;10195;50.868;4.382;2022-07-10T10:31:18;22.00;99.90
20070;DHT22;10195;50.868;4.382;2022-07-10T10:33:46;21.40;99.90
20070;DHT22;10195;50.868;4.382;2022-07-10T10:39:19;21.60;99.90
20070;DHT22;10195;50.868;4.382;2022-07-10T10:41:49;21.40;99.90
20070;DHT22;10195;50.868;4.382;2022-07-10T10:49:20;21.30;99.90
20070;DHT22;10195;50.868;4.382;2022-07-10T10:52:08;20.90;99.90
20070;DHT22;10195;50.868;4.382;2022-07-10T10:59:57;21.50;99.90
20070;DHT22;10195;50.868;4.382;2022-07-10T11:02:30;21.30;99.90
20070;DHT22;10195;50.868;4.382;2022-07-10T11:07:53;22.00;99.90
20070;DHT22;10195;50.868;4.382;2022-07-10T11:10:29;22.10;99.90
20070;DHT22;10195;50.868;4.382;2022-07-10T11:15:26;21.90;99.90
20070;DHT22;10195;50.868;4.382;2022-07-10T11:17:52;21.60;99.90
20070;DHT22;10195;50.868;4.382;2022-07-10T11:20:18;21.50;99.90
20070;DHT22;10195;50.868;4.382;2022-07-10T11:26:04;22.20;99.90
20070;DHT22;10195;50.868;4.382;2022-07-10T11:31:08;23.50;99.90
20070;DHT22;10195;50.868;4.382;2022-07-10T11:33:45;23.50;99.90
20070;DHT22;10195;50.868;4.382;2022-07-10T11:36:17;24.10;99.90
20070;DHT22;10195;50.868;4.382;2022-07-10T11:38:44;24.10;99.90
20070;DHT22;10195;50.868;4.382;2022-07-10T11:41:17;23.40;99.90
20070;DHT22;10195;50.868;4.382;2022-07-10T11:43:53;23.60;99.90
20070;DHT22;10195;50.868;4.382;2022-07-10T11:46:20;23.60;99.90
20070;DHT22;10195;50.868;4.382;2022-07-10T11:48:47;24.30;99.90
20070;DHT22;10195;50.868;4.382;2022-07-10T11:51:35;24.40;99.90
20070;DHT22;10195;50.868;4.382;2022-07-10T11:54:13;24.60;99.90
20070;DHT22;10195;50.868;4.382;2022-07-10T11:56:48;24.10;99.90
20070;DHT22;10195;50.868;4.382;2022-07-10T11:59:15;23.30;99.90
20070;DHT22;10195;50.868;4.382;2022-07-10T12:01:44;23.30;99.90
20070;DHT22;10195;50.868;4.382;2022-07-10T12:04:11;22.90;99.90
20070;DHT22;10195;50.868;4.382;2022-07-10T12:06:39;22.30;99.90
20070;DHT22;10195;50.868;4.382;2022-07-10T12:11:33;22.20;99.90
20070;DHT22;10195;50.868;4.382;2022-07-10T12:14:19;22.70;99.90
20070;DHT22;10195;50.868;4.382;2022-07-10T12:16:47;22.60;99.90
20070;DHT22;10195;50.868;4.382;2022-07-10T12:19:15;22.60;99.90
20070;DHT22;10195;50.868;4.382;2022-07-10T12:21:42;22.70;99.90
20070;DHT22;10195;50.868;4.382;2022-07-10T12:24:09;22.90;99.90
20070;DHT22;10195;50.868;4.382;2022-07-10T12:26:37;23.10;99.90
20070;DHT22;10195;50.868;4.382;2022-07-10T12:29:04;22.90;99.90
20070;DHT22;10195;50.868;4.382;2022-07-10T12:31:33;23.30;99.90
20070;DHT22;10195;50.868;4.382;2022-07-10T12:34:02;23.60;99.90
20070;DHT22;10195;50.868;4.382;2022-07-10T12:36:45;23.60;99.90
20070;DHT22;10195;50.868;4.382;2022-07-10T12:39:12;23.10;99.90
20070;DHT22;10195;50.868;4.382;2022-07-10T12:41:58;22.40;99.90
20070;DHT22;10195;50.868;4.382;2022-07-10T12:44:41;22.30;99.90
20070;DHT22;10195;50.868;4.382;2022-07-10T12:47:12;22.60;99.90
20070;DHT22;10195;50.868;4.382;2022-07-10T12:49:52;22.80;99.90
20070;DHT22;10195;50.868;4.382;2022-07-10T12:52:29;23.10;99.90
20070;DHT22;10195;50.868;4.382;2022-07-10T13:00:47;23.00;99.90
20070;DHT22;10195;50.868;4.382;2022-07-10T13:03:19;23.60;99.90
20070;DHT22;10195;50.868;4.382;2022-07-10T13:05:47;24.00;99.90
20070;DHT22;10195;50.868;4.382;2022-07-10T13:08:18;23.30;99.90
20070;DHT22;10195;50.868;4.382;2022-07-10T13:10:56;23.10;99.90
20070;DHT22;10195;50.868;4.382;2022-07-10T13:13:24;22.80;99.90
20070;DHT22;10195;50.868;4.382;2022-07-10T13:15:50;22.70;99.90
20070;DHT22;10195;50.868;4.382;2022-07-10T13:18:17;23.00;99.90
20070;DHT22;10195;50.868;4.382;2022-07-10T13:20:47;23.50;99.90
20070;DHT22;10195;50.868;4.382;2022-07-10T13:23:13;23.90;99.90
20070;DHT22;10195;50.868;4.382;2022-07-10T13:25:39;24.10;99.90
20070;DHT22;10195;50.868;4.382;2022-07-10T13:28:06;23.70;99.90
20070;DHT22;10195;50.868;4.382;2022-07-10T13:30:35;23.20;99.90
20070;DHT22;10195;50.868;4.382;2022-07-10T13:33:01;23.40;99.90
20070;DHT22;10195;50.868;4.382;2022-07-10T13:35:28;23.90;99.90
20070;DHT22;10195;50.868;4.382;2022-07-10T13:37:55;24.00;99.90
20070;DHT22;10195;50.868;4.382;2022-07-10T13:40:21;24.30;99.90
20070;DHT22;10195;50.868;4.382;2022-07-10T13:42:46;24.40;99.90
20070;DHT22;10195;50.868;4.382;2022-07-10T13:45:12;23.70;99.90
20070;DHT22;10195;50.868;4.382;2022-07-10T13:47:38;24.10;99.90
20070;DHT22;10195;50.868;4.382;2022-07-10T13:50:03;24.40;99.90
20070;DHT22;10195;50.868;4.382;2022-07-10T13:52:29;24.50;99.90
20070;DHT22;10195;50.868;4.382;2022-07-10T13:54:55;24.80;99.90
20070;DHT22;10195;50.868;4.382;2022-07-10T13:57:20;24.80;99.90
20070;DHT22;10195;50.868;4.382;2022-07-10T13:59:46;24.50;99.90
20070;DHT22;10195;50.868;4.382;2022-07-10T14:02:12;24.10;99.90
20070;DHT22;10195;50.868;4.382;2022-07-10T14:04:38;23.80;99.90
20070;DHT22;10195;50.868;4.382;2022-07-10T14:07:04;23.80;99.90
20070;DHT22;10195;50.868;4.382;2022-07-10T14:09:29;23.80;99.90
20070;DHT22;10195;50.868;4.382;2022-07-10T14:11:55;23.70;99.90
20070;DHT22;10195;50.868;4.382;2022-07-10T14:14:21;23.90;99.90
20070;DHT22;10195;50.868;4.382;2022-07-10T14:16:47;23.50;99.90
20070;DHT22;10195;50.868;4.382;2022-07-10T14:19:15;23.10;99.90
20070;DHT22;10195;50.868;4.382;2022-07-10T14:21:41;23.20;99.90
20070;DHT22;10195;50.868;4.382;2022-07-10T14:24:06;23.50;99.90
20070;DHT22;10195;50.868;4.382;2022-07-10T14:26:32;23.80;99.90
20070;DHT22;10195;50.868;4.382;2022-07-10T14:29:04;24.20;99.90
20070;DHT22;10195;50.868;4.382;2022-07-10T14:31:30;24.00;99.90
20070;DHT22;10195;50.868;4.382;2022-07-10T14:33:56;24.00;99.90
20070;DHT22;10195;50.868;4.382;2022-07-10T14:36:21;24.40;99.90
20070;DHT22;10195;50.868;4.382;2022-07-10T14:38:55;24.80;99.90
20070;DHT22;10195;50.868;4.382;2022-07-10T14:41:23;24.40;99.90
20070;DHT22;10195;50.868;4.382;2022-07-10T14:43:49;24.30;99.90
20070;DHT22;10195;50.868;4.382;2022-07-10T14:46:15;24.00;99.90
20070;DHT22;10195;50.868;4.382;2022-07-10T14:48:41;23.90;99.90
20070;DHT22;10195;50.868;4.382;2022-07-10T14:51:07;24.00;99.90
20070;DHT22;10195;50.868;4.382;2022-07-10T14:53:33;23.80;99.90
20070;DHT22;10195;50.868;4.382;2022-07-10T14:56:04;23.80;99.90
20070;DHT22;10195;50.868;4.382;2022-07-10T14:58:31;24.00;99.90
20070;DHT22;10195;50.868;4.382;2022-07-10T15:00:56;23.70;99.90
20070;DHT22;10195;50.868;4.382;2022-07-10T15:03:22;23.40;99.90
20070;DHT22;10195;50.868;4.382;2022-07-10T15:05:47;23.10;99.90
20070;DHT22;10195;50.868;4.382;2022-07-10T15:08:18;23.30;99.90
20070;DHT22;10195;50.868;4.382;2022-07-10T15:10:43;23.50;99.90
20070;DHT22;10195;50.868;4.382;2022-07-10T15:13:11;23.60;99.90
20070;DHT22;10195;50.868;4.382;2022-07-10T15:15:37;23.50;99.90
20070;DHT22;10195;50.868;4.382;2022-07-10T15:18:03;23.60;99.90
20070;DHT22;10195;50.868;4.382;2022-07-10T15:20:29;23.80;99.90
20070;DHT22;10195;50.868;4.382;2022-07-10T15:23:03;24.00;99.90
20070;DHT22;10195;50.868;4.382;2022-07-10T15:25:32;23.60;99.90
20070;DHT22;10195;50.868;4.382;2022-07-10T15:28:03;23.30;99.90
20070;DHT22;10195;50.868;4.382;2022-07-10T15:30:30;23.30;99.90
20070;DHT22;10195;50.868;4.382;2022-07-10T15:32:56;23.40;99.90
20070;DHT22;10195;50.868;4.382;2022-07-10T15:35:26;23.70;99.90
20070;DHT22;10195;50.868;4.382;2022-07-10T15:37:52;23.80;99.90
20070;DHT22;10195;50.868;4.382;2022-07-10T15:40:18;23.70;99.90
20070;DHT22;10195;50.868;4.382;2022-07-10T15:42:44;23.60;99.90
20070;DHT22;10195;50.868;4.382;2022-07-10T15:45:10;23.70;99.90
20070;DHT22;10195;50.868;4.382;2022-07-10T15:47:36;23.60;99.90
20070;DHT22;10195;50.868;4.382;2022-07-10T15:50:02;23.50;99.90
20070;DHT22;10195;50.868;4.382;2022-07-10T15:52:28;23.50;99.90
20070;DHT22;10195;50.868;4.382;2022-07-10T15:54:53;23.70;99.90
20070;DHT22;10195;50.868;4.382;2022-07-10T15:57:19;23.70;99.90
20070;DHT22;10195;50.868;4.382;2022-07-10T15:59:45;23.80;99.90
20070;DHT22;10195;50.868;4.382;2022-07-10T16:02:11;24.10;99.90
20070;DHT22;10195;50.868;4.382;2022-07-10T16:04:37;24.20;99.90
20070;DHT22;10195;50.868;4.382;2022-07-10T16:07:04;23.90;99.90
20070;DHT22;10195;50.868;4.382;2022-07-10T16:09:30;24.10;99.90
20070;DHT22;10195;50.868;4.382;2022-07-10T16:12:00;23.90;99.90